createdAt,value
2023-03-18T00:02:01.956Z,100677.16
2023-03-18T00:17:06.740Z,100667.78
2023-03-18T00:32:10.089Z,100661.76
2023-03-18T00:47:13.266Z,100656.47
2023-03-18T01:02:17.285Z,100644.66
2023-03-18T01:17:21.018Z,100635.13
2023-03-18T01:32:24.274Z,100622.80
2023-03-18T01:47:28.534Z,100604.69
2023-03-18T02:02:33.488Z,100598.36
2023-03-18T02:17:41.485Z,100590.88
2023-03-18T02:32:47.541Z,100597.77
2023-03-18T02:47:52.989Z,100603.12
2023-03-18T03:02:57.309Z,100597.10
2023-03-18T03:18:00.634Z,100598.72
2023-03-18T03:33:04.512Z,100598.66
2023-03-18T03:48:08.996Z,100582.41
2023-03-18T04:03:14.461Z,100577.23
2023-03-18T04:18:18.461Z,100573.89
2023-03-18T04:33:22.157Z,100583.67
2023-03-18T04:48:25.738Z,100579.71
2023-03-18T05:03:31.257Z,100566.10
2023-03-18T05:18:35.765Z,100569.17
2023-03-18T05:33:39.539Z,100566.24
2023-03-18T05:48:43.625Z,100568.73
2023-03-18T06:03:47.478Z,100570.69
2023-03-18T06:18:50.922Z,100571.45
2023-03-18T06:33:54.244Z,100571.52
2023-03-18T06:48:58.196Z,100567.48
2023-03-18T07:04:07.170Z,100558.33
2023-03-18T07:19:11.766Z,100559.14
2023-03-18T07:34:17.869Z,100568.75
2023-03-18T07:49:21.881Z,100555.53
2023-03-18T08:04:25.349Z,100555.77
2023-03-18T08:19:28.707Z,100554.75
2023-03-18T08:34:32.108Z,100561.17
2023-03-18T08:49:35.705Z,100551.90
2023-03-18T09:04:38.952Z,100554.98
2023-03-18T09:19:42.514Z,100549.69
2023-03-18T09:34:46.562Z,100556.95
2023-03-18T09:50:06.391Z,100550.77
2023-03-18T10:05:33.836Z,100541.75
2023-03-18T10:21:09.293Z,100536.82
2023-03-18T10:36:17.698Z,100520.59
2023-03-18T10:51:36.995Z,100493.52
2023-03-18T11:07:00.799Z,100479.41
2023-03-18T11:22:14.347Z,100455.63
2023-03-18T11:37:20.084Z,100451.71
2023-03-18T11:52:35.308Z,100416.38
2023-03-18T12:07:48.646Z,100390.31
2023-03-18T12:22:58.026Z,100398.71
2023-03-18T12:38:10.447Z,100416.89
2023-03-18T12:53:20.433Z,100416.67
2023-03-18T13:08:41.717Z,100401.27
2023-03-18T13:24:32.703Z,100399.50
2023-03-18T13:39:59.003Z,100399.51
2023-03-18T13:55:13.783Z,100391.77
2023-03-18T14:10:20.553Z,100377.47
2023-03-18T14:25:40.663Z,100378.61
2023-03-18T14:40:46.924Z,100382.25
2023-03-18T14:55:52.059Z,100383.64
2023-03-18T15:10:56.643Z,100393.80
2023-03-18T15:26:00.014Z,100390.18
2023-03-18T15:41:06.336Z,100375.16
2023-03-18T15:56:26.727Z,100377.14
2023-03-18T16:11:30.255Z,100386.98
2023-03-18T16:26:37.472Z,100392.23
2023-03-18T16:41:40.910Z,100392.84
2023-03-18T16:56:44.317Z,100391.89
2023-03-18T17:11:50.028Z,100402.48
2023-03-18T17:26:55.690Z,100404.45
2023-03-18T17:41:59.113Z,100401.23
2023-03-18T17:57:02.251Z,100398.29
2023-03-18T18:12:05.888Z,100394.76
2023-03-18T18:27:13.770Z,100393.62
2023-03-18T18:42:24.154Z,100399.11
2023-03-18T18:57:32.986Z,100397.83
2023-03-18T19:12:39.339Z,100401.09
2023-03-18T19:27:49.166Z,100401.86
2023-03-18T19:42:53.418Z,100403.31
2023-03-18T19:57:58.001Z,100405.54
2023-03-18T20:13:02.487Z,100412.31
2023-03-18T20:28:15.346Z,100407.67
2023-03-18T20:43:23.481Z,100411.20
2023-03-18T20:58:29.333Z,100415.66
2023-03-18T21:13:40.060Z,100418.80
2023-03-18T21:28:45.088Z,100416.41
2023-03-18T21:43:51.165Z,100412.12
2023-03-18T21:58:56.703Z,100400.44
2023-03-18T22:14:00.855Z,100398.09
2023-03-18T22:29:05.678Z,100399.56
2023-03-18T22:44:23.219Z,100395.58
2023-03-18T22:59:26.790Z,100396.42
2023-03-18T23:14:30.476Z,100391.09
2023-03-18T23:29:33.646Z,100388.30
2023-03-18T23:44:36.767Z,100383.39
2023-03-18T23:59:39.987Z,100379.06
